createdAt,value
2022-08-16T00:01:11.501Z,20.21
2022-08-16T00:03:38.685Z,20.15
2022-08-16T00:06:07.699Z,20.13
2022-08-16T00:08:37.491Z,20.10
2022-08-16T00:11:15.220Z,20.05
2022-08-16T00:13:53.713Z,20.02
2022-08-16T00:16:57.834Z,19.92
2022-08-16T00:19:14.999Z,19.88
2022-08-16T00:21:42.799Z,19.83
2022-08-16T00:24:12.117Z,19.80
2022-08-16T00:26:45.153Z,19.77
2022-08-16T00:29:15.401Z,19.72
2022-08-16T00:31:59.018Z,19.69
2022-08-16T00:34:43.839Z,19.66
2022-08-16T00:37:16.733Z,19.62
2022-08-16T00:39:44.914Z,19.54
2022-08-16T00:42:11.742Z,19.48
2022-08-16T00:44:43.214Z,19.43
2022-08-16T00:47:16.274Z,19.38
2022-08-16T00:49:44.814Z,19.33
2022-08-16T00:52:30.348Z,19.28
2022-08-16T00:54:59.467Z,19.24
2022-08-16T00:57:27.454Z,19.24
2022-08-16T01:00:14.420Z,19.20
2022-08-16T01:02:47.467Z,19.19
2022-08-16T01:05:15.983Z,19.16
2022-08-16T01:07:51.089Z,19.11
2022-08-16T01:10:31.986Z,19.09
2022-08-16T01:13:05.613Z,19.04
2022-08-16T01:15:35.286Z,19.02
2022-08-16T01:18:05.820Z,18.96
2022-08-16T01:20:37.941Z,18.92
2022-08-16T01:24:01.553Z,18.88
2022-08-16T01:26:34.907Z,18.84
2022-08-16T01:29:09.823Z,18.80
2022-08-16T01:31:37.704Z,18.75
2022-08-16T01:34:22.748Z,18.72
2022-08-16T01:37:07.044Z,18.70
2022-08-16T01:39:36.585Z,18.67
2022-08-16T01:42:12.128Z,18.63
2022-08-16T01:44:40.617Z,18.59
2022-08-16T01:47:08.808Z,18.56
2022-08-16T01:49:43.692Z,18.51
2022-08-16T01:52:29.770Z,18.48
2022-08-16T01:54:57.435Z,18.48
2022-08-16T01:57:24.715Z,18.46
2022-08-16T01:59:54.615Z,18.46
2022-08-16T02:02:27.277Z,18.41
2022-08-16T02:04:55.996Z,18.38
2022-08-16T02:07:24.009Z,18.35
2022-08-16T02:09:58.914Z,18.29
2022-08-16T02:12:49.590Z,18.28
2022-08-16T02:15:16.878Z,18.27
2022-08-16T02:17:43.476Z,18.25
2022-08-16T02:20:12.137Z,18.22
2022-08-16T02:22:39.614Z,18.19
2022-08-16T02:25:10.904Z,18.15
2022-08-16T02:27:40.811Z,18.12
2022-08-16T02:30:36.581Z,18.10
2022-08-16T02:32:59.854Z,18.09
2022-08-16T02:35:27.120Z,18.07
2022-08-16T02:37:56.120Z,18.04
2022-08-16T02:40:24.104Z,18.03
2022-08-16T02:42:53.335Z,18.01
2022-08-16T02:45:24.611Z,17.98
2022-08-16T02:48:01.344Z,17.94
2022-08-16T02:50:53.945Z,17.92
2022-08-16T02:53:25.609Z,17.89
2022-08-16T02:55:53.155Z,17.87
2022-08-16T02:58:24.745Z,17.84
2022-08-16T03:00:55.979Z,17.82
2022-08-16T03:03:24.998Z,17.80
2022-08-16T03:05:52.550Z,17.79
2022-08-16T03:08:50.513Z,17.77
2022-08-16T03:11:16.472Z,17.75
2022-08-16T03:13:47.572Z,17.74
2022-08-16T03:16:17.990Z,17.70
2022-08-16T03:19:01.746Z,17.67
2022-08-16T03:21:29.344Z,17.65
2022-08-16T03:24:06.264Z,17.62
2022-08-16T03:26:52.705Z,17.61
2022-08-16T03:29:19.187Z,17.58
2022-08-16T03:31:45.643Z,17.54
2022-08-16T03:34:19.065Z,17.53
2022-08-16T03:36:47.380Z,17.50
2022-08-16T03:39:15.040Z,17.48
2022-08-16T03:41:50.118Z,17.46
2022-08-16T03:44:43.502Z,17.43
2022-08-16T03:47:04.901Z,17.41
2022-08-16T03:49:37.412Z,17.38
2022-08-16T03:52:04.611Z,17.36
2022-08-16T03:54:31.167Z,17.33
2022-08-16T03:56:58.741Z,17.31
2022-08-16T03:59:29.676Z,17.29
2022-08-16T04:01:57.879Z,17.27
2022-08-16T04:04:33.602Z,17.25
2022-08-16T04:07:02.774Z,17.25
2022-08-16T04:09:31.106Z,17.23
2022-08-16T04:12:04.666Z,17.20
2022-08-16T04:14:46.344Z,17.19
2022-08-16T04:17:15.412Z,17.14
2022-08-16T04:19:45.373Z,17.13
2022-08-16T04:22:12.668Z,17.14
2022-08-16T04:24:39.435Z,17.13
2022-08-16T04:27:09.064Z,17.11
2022-08-16T04:29:43.923Z,17.10
2022-08-16T04:32:13.866Z,17.11
2022-08-16T04:34:40.593Z,17.12
2022-08-16T04:37:07.366Z,17.14
2022-08-16T04:39:45.965Z,17.17
2022-08-16T04:42:15.753Z,17.18
2022-08-16T04:44:54.140Z,17.20
2022-08-16T04:47:33.104Z,17.23
2022-08-16T04:50:00.186Z,17.25
2022-08-16T04:52:35.234Z,17.27
2022-08-16T04:55:11.804Z,17.28
2022-08-16T04:57:41.398Z,17.30
2022-08-16T05:00:31.932Z,17.31
2022-08-16T05:03:10.660Z,17.31
2022-08-16T05:05:45.187Z,17.32
2022-08-16T05:08:29.368Z,17.36
2022-08-16T05:11:05.262Z,17.38
2022-08-16T05:13:40.693Z,17.40
2022-08-16T05:16:11.870Z,17.48
2022-08-16T05:18:38.582Z,17.54
2022-08-16T05:21:09.717Z,17.57
2022-08-16T05:23:37.989Z,17.62
2022-08-16T05:26:05.519Z,17.67
2022-08-16T05:28:46.115Z,17.71
2022-08-16T05:31:12.734Z,17.78
2022-08-16T05:33:39.211Z,17.84
2022-08-16T05:36:14.522Z,17.91
2022-08-16T05:38:41.195Z,18.01
2022-08-16T05:41:09.480Z,18.05
2022-08-16T05:43:43.470Z,18.12
2022-08-16T05:46:28.673Z,18.16
2022-08-16T05:49:03.802Z,18.20
2022-08-16T05:51:37.660Z,18.30
2022-08-16T05:54:06.429Z,18.44
2022-08-16T05:56:34.275Z,18.51
2022-08-16T05:59:06.152Z,18.58
2022-08-16T06:01:38.159Z,18.60
2022-08-16T06:04:13.605Z,18.59
2022-08-16T06:06:55.847Z,18.59
2022-08-16T06:09:25.200Z,18.72
2022-08-16T06:11:52.103Z,18.84
2022-08-16T06:14:19.611Z,18.93
2022-08-16T06:16:50.987Z,19.05
2022-08-16T06:19:17.970Z,19.16
2022-08-16T06:21:45.221Z,19.29
2022-08-16T06:24:54.476Z,19.39
2022-08-16T06:26:58.562Z,19.50
2022-08-16T06:29:25.201Z,19.60
2022-08-16T06:31:51.909Z,19.72
2022-08-16T06:34:54.206Z,19.81
2022-08-16T06:37:05.469Z,19.96
2022-08-16T06:39:34.531Z,20.10
2022-08-16T06:42:18.276Z,20.21
2022-08-16T06:44:45.579Z,20.30
2022-08-16T06:47:13.030Z,20.41
2022-08-16T06:49:53.052Z,20.53
2022-08-16T06:52:58.207Z,20.71
2022-08-16T06:55:13.030Z,20.88
2022-08-16T06:57:41.173Z,21.02
2022-08-16T07:00:24.076Z,21.12
2022-08-16T07:02:53.645Z,21.26
2022-08-16T07:05:41.261Z,21.40
2022-08-16T07:08:11.435Z,21.51
2022-08-16T07:10:38.730Z,21.64
2022-08-16T07:13:11.691Z,21.75
2022-08-16T07:15:50.018Z,21.91
2022-08-16T07:18:20.202Z,22.07
2022-08-16T07:20:49.157Z,22.23
2022-08-16T07:23:16.139Z,22.34
2022-08-16T07:25:43.373Z,22.49
2022-08-16T07:28:20.886Z,22.62
2022-08-16T07:30:51.502Z,22.77
2022-08-16T07:33:21.414Z,22.90
2022-08-16T07:36:09.668Z,23.08
2022-08-16T07:38:36.416Z,23.29
2022-08-16T07:41:09.368Z,23.46
2022-08-16T07:43:40.591Z,23.57
2022-08-16T07:46:37.993Z,23.73
2022-08-16T07:48:56.098Z,23.95
2022-08-16T07:51:31.766Z,24.12
2022-08-16T07:54:02.690Z,24.25
2022-08-16T07:56:37.362Z,24.27
2022-08-16T07:59:04.700Z,24.48
2022-08-16T08:01:31.973Z,24.60
2022-08-16T08:03:58.907Z,24.82
2022-08-16T08:06:31.007Z,24.86
2022-08-16T08:08:59.352Z,24.79
2022-08-16T08:11:28.237Z,24.83
2022-08-16T08:13:55.780Z,25.05
2022-08-16T08:16:30.642Z,25.28
2022-08-16T08:19:00.591Z,25.41
2022-08-16T08:21:27.848Z,25.62
2022-08-16T08:24:15.333Z,25.81
2022-08-16T08:26:42.820Z,25.94
2022-08-16T08:29:09.549Z,26.03
2022-08-16T08:31:36.407Z,26.15
2022-08-16T08:34:05.060Z,26.39
2022-08-16T08:36:34.241Z,26.61
2022-08-16T08:39:12.950Z,26.67
2022-08-16T08:41:42.444Z,26.81
2022-08-16T08:44:28.620Z,26.82
2022-08-16T08:47:05.602Z,27.00
2022-08-16T08:49:46.350Z,27.05
2022-08-16T08:52:34.274Z,27.17
2022-08-16T08:55:10.622Z,27.31
2022-08-16T08:57:39.722Z,27.52
2022-08-16T09:00:13.749Z,27.58
2022-08-16T09:02:45.651Z,27.66
2022-08-16T09:05:22.240Z,27.86
2022-08-16T09:08:01.350Z,27.84
2022-08-16T09:10:32.553Z,27.99
2022-08-16T09:13:00.997Z,27.96
2022-08-16T09:15:33.171Z,27.99
2022-08-16T09:18:26.173Z,28.03
2022-08-16T09:20:59.926Z,27.98
2022-08-16T09:23:36.541Z,27.76
2022-08-16T09:26:45.347Z,28.01
2022-08-16T09:29:14.756Z,28.12
2022-08-16T09:31:41.327Z,28.31
2022-08-16T09:34:09.212Z,28.47
2022-08-16T09:36:37.451Z,28.65
2022-08-16T09:39:16.199Z,28.62
2022-08-16T09:41:43.734Z,28.49
2022-08-16T09:45:11.505Z,28.63
2022-08-16T09:47:10.392Z,28.85
2022-08-16T09:49:37.542Z,28.92
2022-08-16T09:52:09.452Z,29.12
2022-08-16T09:54:37.512Z,29.24
2022-08-16T09:57:04.706Z,29.32
2022-08-16T09:59:31.448Z,29.40
2022-08-16T10:02:25.946Z,29.44
2022-08-16T10:04:54.695Z,29.28
2022-08-16T10:07:21.974Z,29.24
2022-08-16T10:09:54.405Z,29.30
2022-08-16T10:12:43.795Z,29.18
2022-08-16T10:15:17.625Z,29.22
2022-08-16T10:18:00.014Z,29.43
2022-08-16T10:20:34.583Z,29.70
2022-08-16T10:23:07.234Z,29.86
2022-08-16T10:27:20.323Z,29.91
2022-08-16T10:28:30.012Z,30.06
2022-08-16T10:30:59.700Z,30.26
2022-08-16T10:33:29.754Z,30.34
2022-08-16T10:36:07.609Z,30.41
2022-08-16T10:38:37.622Z,30.50
2022-08-16T10:41:07.052Z,30.57
2022-08-16T10:43:37.806Z,30.76
2022-08-16T10:46:39.188Z,30.79
2022-08-16T10:48:53.424Z,30.77
2022-08-16T10:51:19.916Z,30.78
2022-08-16T10:54:00.359Z,30.74
2022-08-16T10:56:52.498Z,30.74
2022-08-16T11:07:52.403Z,30.75
2022-08-16T11:13:57.292Z,30.53
2022-08-16T11:19:04.176Z,30.35
2022-08-16T11:21:36.166Z,30.44
2022-08-16T11:24:04.883Z,30.46
2022-08-16T11:29:39.257Z,30.78
2022-08-16T11:32:07.612Z,31.10
2022-08-16T11:35:05.893Z,31.21
2022-08-16T11:37:27.462Z,31.13
2022-08-16T11:40:01.952Z,31.27
2022-08-16T11:42:29.674Z,31.44
2022-08-16T11:44:57.479Z,31.47
2022-08-16T11:47:24.225Z,31.62
2022-08-16T11:49:51.462Z,31.78
2022-08-16T11:52:18.003Z,31.95
2022-08-16T11:54:48.244Z,31.99
2022-08-16T11:57:23.480Z,31.72
2022-08-16T11:59:51.326Z,31.56
2022-08-16T12:02:32.511Z,31.61
2022-08-16T12:04:59.587Z,31.77
2022-08-16T12:07:28.210Z,31.92
2022-08-16T12:09:55.168Z,32.02
2022-08-16T12:12:23.799Z,32.21
2022-08-16T12:14:55.867Z,32.03
2022-08-16T12:17:27.180Z,32.06
2022-08-16T12:19:53.701Z,32.11
2022-08-16T12:22:20.360Z,32.34
2022-08-16T12:24:52.559Z,32.58
2022-08-16T12:27:23.055Z,32.75
2022-08-16T12:29:51.458Z,32.87
2022-08-16T12:32:35.818Z,32.84
2022-08-16T12:35:07.493Z,32.50
2022-08-16T12:37:34.896Z,32.11
2022-08-16T12:40:02.537Z,31.78
2022-08-16T12:42:34.674Z,31.53
2022-08-16T12:45:09.882Z,31.49
2022-08-16T12:48:09.948Z,31.41
2022-08-16T12:50:41.447Z,31.38
2022-08-16T12:53:07.955Z,31.40
2022-08-16T12:55:42.077Z,31.33
2022-08-16T12:58:13.727Z,31.25
2022-08-16T13:00:58.426Z,31.33
2022-08-16T13:03:25.546Z,31.42
2022-08-16T13:05:55.825Z,31.68
2022-08-16T13:08:27.518Z,31.80
2022-08-16T13:10:58.124Z,32.06
2022-08-16T13:13:25.623Z,32.16
2022-08-16T13:16:02.080Z,32.31
2022-08-16T13:18:34.778Z,32.17
2022-08-16T13:21:07.854Z,31.96
2022-08-16T13:23:43.488Z,31.93
2022-08-16T13:26:10.735Z,31.86
2022-08-16T13:28:37.285Z,31.58
2022-08-16T13:31:04.248Z,31.58
2022-08-16T13:33:37.115Z,31.63
2022-08-16T13:36:17.008Z,31.68
2022-08-16T13:38:52.778Z,31.74
2022-08-16T13:41:21.131Z,32.01
2022-08-16T13:43:57.942Z,32.28
2022-08-16T13:46:26.396Z,32.47
2022-08-16T13:48:53.013Z,32.45
2022-08-16T13:51:23.890Z,32.63
2022-08-16T13:53:59.174Z,32.32
2022-08-16T13:56:37.297Z,31.90
2022-08-16T13:59:19.230Z,31.77
2022-08-16T14:01:47.025Z,31.93
2022-08-16T14:04:27.232Z,32.15
2022-08-16T14:06:56.408Z,32.10
2022-08-16T14:09:23.271Z,31.87
2022-08-16T14:11:53.680Z,31.54
2022-08-16T14:14:21.631Z,31.23
2022-08-16T14:16:56.200Z,31.04
2022-08-16T14:19:22.874Z,31.13
2022-08-16T14:22:14.810Z,31.26
2022-08-16T14:24:36.835Z,31.17
2022-08-16T14:27:04.758Z,31.05
2022-08-16T14:29:35.114Z,30.88
2022-08-16T14:32:06.833Z,30.72
2022-08-16T14:34:33.350Z,30.58
2022-08-16T14:37:00.484Z,30.52
2022-08-16T14:39:27.210Z,30.50
2022-08-16T14:41:55.877Z,30.44
2022-08-16T14:44:23.488Z,30.33
2022-08-16T14:46:49.976Z,30.25
2022-08-16T14:49:19.308Z,30.17
2022-08-16T14:51:46.351Z,30.07
2022-08-16T14:54:15.158Z,30.07
2022-08-16T14:56:43.337Z,30.17
2022-08-16T14:59:29.911Z,30.10
2022-08-16T15:01:59.512Z,30.11
2022-08-16T15:04:39.286Z,30.09
2022-08-16T15:07:09.326Z,30.08
2022-08-16T15:09:44.799Z,30.10
2022-08-16T15:12:26.982Z,30.11
2022-08-16T15:14:57.848Z,30.06
2022-08-16T15:17:27.600Z,30.04
2022-08-16T15:20:01.219Z,30.09
2022-08-16T15:22:33.524Z,30.15
2022-08-16T15:25:05.049Z,29.99
2022-08-16T15:27:35.937Z,30.08
2022-08-16T15:30:44.709Z,30.23
2022-08-16T15:32:59.942Z,30.37
2022-08-16T15:35:26.643Z,30.51
2022-08-16T15:37:56.632Z,30.45
2022-08-16T15:40:32.159Z,30.39
2022-08-16T15:43:02.471Z,30.26
2022-08-16T15:45:47.761Z,30.11
2022-08-16T15:48:28.642Z,30.00
2022-08-16T15:50:58.963Z,29.96
2022-08-16T15:53:27.313Z,29.68
2022-08-16T15:55:55.424Z,29.51
2022-08-16T15:58:35.535Z,29.33
2022-08-16T16:01:07.109Z,29.22
2022-08-16T16:03:34.544Z,29.15
2022-08-16T16:06:02.730Z,29.20
2022-08-16T16:08:30.958Z,29.18
2022-08-16T16:11:00.652Z,29.19
2022-08-16T16:13:31.013Z,29.17
2022-08-16T16:16:00.415Z,29.07
2022-08-16T16:18:29.803Z,29.09
2022-08-16T16:21:00.691Z,29.13
2022-08-16T16:23:30.971Z,29.11
2022-08-16T16:25:59.060Z,29.09
2022-08-16T16:29:05.228Z,29.07
2022-08-16T16:31:17.610Z,29.10
2022-08-16T16:33:47.838Z,29.18
2022-08-16T16:36:19.623Z,29.32
2022-08-16T16:38:47.608Z,29.31
2022-08-16T16:41:16.879Z,29.36
2022-08-16T16:43:44.388Z,29.40
2022-08-16T16:46:40.339Z,29.48
2022-08-16T16:49:04.087Z,29.36
2022-08-16T16:51:31.396Z,29.33
2022-08-16T16:53:59.737Z,29.29
2022-08-16T16:56:31.236Z,29.07
2022-08-16T16:59:08.877Z,28.99
2022-08-16T17:02:00.460Z,28.76
2022-08-16T17:04:32.028Z,28.49
2022-08-16T17:07:02.897Z,28.38
2022-08-16T17:09:30.153Z,28.29
2022-08-16T17:11:58.265Z,28.31
2022-08-16T17:14:32.206Z,28.21
2022-08-16T17:17:03.988Z,28.02
2022-08-16T17:19:31.769Z,27.94
2022-08-16T17:21:59.532Z,27.87
2022-08-16T17:24:26.356Z,27.79
2022-08-16T17:27:06.343Z,27.79
2022-08-16T17:29:32.851Z,27.79
2022-08-16T17:32:33.264Z,27.78
2022-08-16T17:37:48.925Z,27.54
2022-08-16T17:39:27.207Z,27.66
2022-08-16T17:40:45.838Z,27.42
2022-08-16T17:43:18.634Z,27.40
2022-08-16T17:45:46.044Z,27.36
2022-08-16T17:48:13.657Z,27.30
2022-08-16T17:50:41.699Z,27.21
2022-08-16T17:53:10.030Z,27.14
2022-08-16T17:55:39.089Z,27.14
2022-08-16T17:58:20.069Z,27.01
2022-08-16T18:00:52.224Z,26.95
2022-08-16T18:04:06.865Z,26.83
2022-08-16T18:06:17.732Z,26.76
2022-08-16T18:08:46.762Z,26.70
2022-08-16T18:11:18.194Z,26.62
2022-08-16T18:13:46.223Z,26.50
2022-08-16T18:16:15.438Z,26.43
2022-08-16T18:18:43.038Z,26.38
2022-08-16T18:21:30.051Z,26.34
2022-08-16T18:23:56.716Z,26.18
2022-08-16T18:26:23.229Z,26.08
2022-08-16T18:28:50.475Z,26.00
2022-08-16T18:31:17.104Z,25.98
2022-08-16T18:33:44.180Z,25.95
2022-08-16T18:36:20.777Z,25.81
2022-08-16T18:38:48.685Z,25.70
2022-08-16T18:41:15.293Z,25.65
2022-08-16T18:44:14.240Z,25.62
2022-08-16T18:46:28.368Z,25.51
2022-08-16T18:48:54.828Z,25.43
2022-08-16T18:51:24.945Z,25.37
2022-08-16T18:53:52.087Z,25.34
2022-08-16T18:56:18.541Z,25.21
2022-08-16T18:58:44.989Z,25.18
2022-08-16T19:01:11.598Z,25.10
2022-08-16T19:03:38.134Z,25.00
2022-08-16T19:06:10.441Z,24.96
2022-08-16T19:08:38.216Z,24.92
2022-08-16T19:11:07.477Z,24.91
2022-08-16T19:13:34.975Z,24.86
2022-08-16T19:16:03.172Z,24.79
2022-08-16T19:18:36.586Z,24.67
2022-08-16T19:21:04.885Z,24.60
2022-08-16T19:23:34.456Z,24.49
2022-08-16T19:26:06.031Z,24.45
2022-08-16T19:28:49.314Z,24.38
2022-08-16T19:31:29.170Z,24.31
2022-08-16T19:33:56.871Z,24.31
2022-08-16T19:36:35.293Z,24.21
2022-08-16T19:39:11.955Z,24.15
2022-08-16T19:41:41.999Z,24.12
2022-08-16T19:44:09.637Z,24.07
2022-08-16T19:46:37.976Z,24.08
2022-08-16T19:49:05.424Z,24.08
2022-08-16T19:51:31.982Z,24.06
2022-08-16T19:53:58.593Z,24.00
2022-08-16T19:56:26.690Z,23.99
2022-08-16T19:59:18.106Z,23.94
2022-08-16T20:01:42.468Z,23.92
2022-08-16T20:04:13.532Z,23.92
2022-08-16T20:06:41.934Z,23.89
2022-08-16T20:09:08.431Z,23.84
2022-08-16T20:11:37.171Z,23.78
2022-08-16T20:14:03.887Z,23.75
2022-08-16T20:16:30.425Z,23.74
2022-08-16T20:18:56.936Z,23.72
2022-08-16T20:21:24.265Z,23.67
2022-08-16T20:23:50.882Z,23.63
2022-08-16T20:26:18.817Z,23.63
2022-08-16T20:28:54.171Z,23.61
2022-08-16T20:31:23.629Z,23.60
2022-08-16T20:33:52.084Z,23.53
2022-08-16T20:36:18.629Z,23.50
2022-08-16T20:38:47.476Z,23.45
2022-08-16T20:41:15.293Z,23.40
2022-08-16T20:43:41.895Z,23.36
2022-08-16T20:46:08.428Z,23.36
2022-08-16T20:48:34.911Z,23.36
2022-08-16T20:51:01.517Z,23.34
2022-08-16T20:53:28.042Z,23.31
2022-08-16T20:55:54.650Z,23.28
2022-08-16T20:58:21.126Z,23.25
2022-08-16T21:00:47.994Z,23.23
2022-08-16T21:03:14.733Z,23.21
2022-08-16T21:05:41.647Z,23.17
2022-08-16T21:08:27.963Z,23.14
2022-08-16T21:10:56.407Z,23.12
2022-08-16T21:13:25.333Z,23.05
2022-08-16T21:15:52.247Z,23.01
2022-08-16T21:18:18.733Z,22.97
2022-08-16T21:21:07.130Z,22.91
2022-08-16T21:23:33.671Z,22.89
2022-08-16T21:26:00.411Z,22.87
2022-08-16T21:28:40.334Z,22.84
2022-08-16T21:31:16.381Z,22.81
2022-08-16T21:33:55.078Z,22.74
2022-08-16T21:36:35.658Z,22.69
2022-08-16T21:39:05.476Z,22.66
2022-08-16T21:41:32.105Z,22.62
2022-08-16T21:43:58.536Z,22.59
2022-08-16T21:46:25.014Z,22.54
2022-08-16T21:48:51.503Z,22.51
2022-08-16T21:51:17.971Z,22.46
2022-08-16T21:53:44.480Z,22.46
2022-08-16T21:56:16.900Z,22.42
2022-08-16T21:58:52.881Z,22.38
2022-08-16T22:01:23.524Z,22.34
2022-08-16T22:04:01.561Z,22.32
2022-08-16T22:06:39.165Z,22.28
2022-08-16T22:09:07.111Z,22.25
2022-08-16T22:11:34.116Z,22.23
2022-08-16T22:14:00.942Z,22.18
2022-08-16T22:16:30.005Z,22.15
2022-08-16T22:18:56.639Z,22.12
2022-08-16T22:21:23.368Z,22.09
2022-08-16T22:23:57.070Z,22.05
2022-08-16T22:26:34.579Z,22.01
2022-08-16T22:29:05.037Z,21.98
2022-08-16T22:31:32.978Z,21.97
2022-08-16T22:34:01.826Z,21.90
2022-08-16T22:36:29.049Z,21.89
2022-08-16T22:38:58.023Z,21.86
2022-08-16T22:41:25.386Z,21.82
2022-08-16T22:43:52.414Z,21.79
2022-08-16T22:46:19.580Z,21.73
2022-08-16T22:48:49.935Z,21.72
2022-08-16T22:51:17.406Z,21.69
2022-08-16T22:53:43.956Z,21.66
2022-08-16T22:56:10.679Z,21.64
2022-08-16T22:58:37.437Z,21.63
2022-08-16T23:01:06.997Z,21.59
2022-08-16T23:03:33.719Z,21.58
2022-08-16T23:06:00.773Z,21.57
2022-08-16T23:08:35.022Z,21.54
2022-08-16T23:11:12.076Z,21.51
2022-08-16T23:13:50.065Z,21.47
2022-08-16T23:16:32.443Z,21.42
2022-08-16T23:19:05.431Z,21.40
2022-08-16T23:21:33.073Z,21.36
2022-08-16T23:23:59.938Z,21.33
2022-08-16T23:26:46.653Z,21.30
2022-08-16T23:29:15.926Z,21.27
2022-08-16T23:31:49.183Z,21.25
2022-08-16T23:34:16.011Z,21.24
2022-08-16T23:36:42.574Z,21.23
2022-08-16T23:39:09.127Z,21.20
2022-08-16T23:41:35.672Z,21.17
2022-08-16T23:44:02.163Z,21.14
2022-08-16T23:46:49.363Z,21.10
2022-08-16T23:49:57.593Z,21.07
2022-08-16T23:52:10.087Z,21.05
2022-08-16T23:54:36.613Z,21.03
2022-08-16T23:57:03.327Z,21.02
2022-08-16T23:59:29.883Z,21.00
